Terminal Aerodrome Forecast
Issued by NWS

Home | Current Version | Previous Version | Text Only | Print | Product List | Glossary On
Versions: 1 2 3 4 5 6 7 8 9 10 11 12 13 14 15 16 17 18
000
FTUS43 KJKL 231301 AAA
TAFSME
TAF AMD
KSME 231301Z 2313/2412 VRB03KT 4SM BR SCT025 BKN050
     FM231400 17004KT P6SM BKN040
     FM240100 16004KT P6SM SCT050
     FM240900 18005KT P6SM SCT100 WS020/20040KT=

USA.gov is the U.S. government's official web portal to all federal, state and local government web resources and services.